sensor_id;sensor_type;location;lat;lon;timestamp;P1;durP1;ratioP1;P2;durP2;ratioP2
58972;SDS011;44750;52.040;7.472;2022-12-07T00:00:22;3.37;;;2.17;;
58972;SDS011;44750;52.040;7.472;2022-12-07T00:05:22;3.72;;;2.00;;
58972;SDS011;44750;52.040;7.472;2022-12-07T00:10:22;2.85;;;2.47;;
58972;SDS011;44750;52.040;7.472;2022-12-07T00:15:23;5.78;;;2.20;;
58972;SDS011;44750;52.040;7.472;2022-12-07T00:20:23;3.25;;;1.95;;
58972;SDS011;44750;52.040;7.472;2022-12-07T00:25:23;2.95;;;1.85;;
58972;SDS011;44750;52.040;7.472;2022-12-07T00:30:23;4.07;;;1.83;;
58972;SDS011;44750;52.040;7.472;2022-12-07T00:35:23;2.15;;;1.88;;
58972;SDS011;44750;52.040;7.472;2022-12-07T00:40:24;2.78;;;2.08;;
58972;SDS011;44750;52.040;7.472;2022-12-07T00:45:24;6.35;;;2.25;;
58972;SDS011;44750;52.040;7.472;2022-12-07T00:50:24;3.88;;;2.17;;
58972;SDS011;44750;52.040;7.472;2022-12-07T00:55:26;2.95;;;2.38;;
58972;SDS011;44750;52.040;7.472;2022-12-07T01:00:26;1.90;;;1.80;;
58972;SDS011;44750;52.040;7.472;2022-12-07T01:05:26;8.30;;;2.55;;
58972;SDS011;44750;52.040;7.472;2022-12-07T01:10:27;3.00;;;2.70;;
58972;SDS011;44750;52.040;7.472;2022-12-07T01:15:27;4.55;;;2.75;;
58972;SDS011;44750;52.040;7.472;2022-12-07T01:20:27;3.05;;;2.13;;
58972;SDS011;44750;52.040;7.472;2022-12-07T01:25:28;8.38;;;2.50;;
58972;SDS011;44750;52.040;7.472;2022-12-07T01:30:28;3.00;;;1.80;;
58972;SDS011;44750;52.040;7.472;2022-12-07T01:35:28;3.13;;;1.95;;
58972;SDS011;44750;52.040;7.472;2022-12-07T01:40:28;2.00;;;1.60;;
58972;SDS011;44750;52.040;7.472;2022-12-07T01:45:37;2.75;;;2.08;;
58972;SDS011;44750;52.040;7.472;2022-12-07T01:50:39;3.30;;;1.75;;
58972;SDS011;44750;52.040;7.472;2022-12-07T01:55:42;3.90;;;2.33;;
58972;SDS011;44750;52.040;7.472;2022-12-07T02:00:45;2.05;;;1.77;;
58972;SDS011;44750;52.040;7.472;2022-12-07T02:05:46;2.63;;;1.92;;
58972;SDS011;44750;52.040;7.472;2022-12-07T02:10:47;6.07;;;2.72;;
58972;SDS011;44750;52.040;7.472;2022-12-07T02:31:14;2.25;;;1.85;;
58972;SDS011;44750;52.040;7.472;2022-12-07T02:36:26;2.58;;;1.83;;
58972;SDS011;44750;52.040;7.472;2022-12-07T02:41:32;2.83;;;1.55;;
58972;SDS011;44750;52.040;7.472;2022-12-07T02:46:36;5.32;;;2.38;;
58972;SDS011;44750;52.040;7.472;2022-12-07T02:51:41;4.13;;;1.88;;
58972;SDS011;44750;52.040;7.472;2022-12-07T03:07:56;1.35;;;1.25;;
58972;SDS011;44750;52.040;7.472;2022-12-07T03:18:49;2.15;;;1.58;;
58972;SDS011;44750;52.040;7.472;2022-12-07T03:23:56;2.80;;;1.77;;
58972;SDS011;44750;52.040;7.472;2022-12-07T03:29:01;2.88;;;1.92;;
58972;SDS011;44750;52.040;7.472;2022-12-07T03:44:29;1.70;;;1.55;;
58972;SDS011;44750;52.040;7.472;2022-12-07T03:49:37;2.60;;;1.98;;
58972;SDS011;44750;52.040;7.472;2022-12-07T03:54:45;5.30;;;1.98;;
58972;SDS011;44750;52.040;7.472;2022-12-07T03:59:51;4.65;;;2.22;;
58972;SDS011;44750;52.040;7.472;2022-12-07T04:04:55;3.78;;;1.88;;
58972;SDS011;44750;52.040;7.472;2022-12-07T04:09:56;1.15;;;1.00;;
58972;SDS011;44750;52.040;7.472;2022-12-07T04:14:56;3.38;;;1.77;;
58972;SDS011;44750;52.040;7.472;2022-12-07T04:19:57;1.95;;;1.60;;
58972;SDS011;44750;52.040;7.472;2022-12-07T04:24:57;1.65;;;1.17;;
58972;SDS011;44750;52.040;7.472;2022-12-07T04:29:57;2.13;;;1.10;;
58972;SDS011;44750;52.040;7.472;2022-12-07T04:34:57;4.22;;;2.40;;
58972;SDS011;44750;52.040;7.472;2022-12-07T04:39:57;3.15;;;1.77;;
58972;SDS011;44750;52.040;7.472;2022-12-07T04:44:58;2.30;;;1.23;;
58972;SDS011;44750;52.040;7.472;2022-12-07T04:49:58;1.70;;;1.10;;
58972;SDS011;44750;52.040;7.472;2022-12-07T04:54:58;2.50;;;1.50;;
58972;SDS011;44750;52.040;7.472;2022-12-07T04:59:58;1.92;;;1.15;;
58972;SDS011;44750;52.040;7.472;2022-12-07T05:04:58;1.35;;;1.25;;
58972;SDS011;44750;52.040;7.472;2022-12-07T05:09:59;1.98;;;1.52;;
58972;SDS011;44750;52.040;7.472;2022-12-07T05:14:59;1.95;;;1.35;;
58972;SDS011;44750;52.040;7.472;2022-12-07T05:20:00;1.80;;;0.73;;
58972;SDS011;44750;52.040;7.472;2022-12-07T05:25:00;0.77;;;0.77;;
58972;SDS011;44750;52.040;7.472;2022-12-07T05:30:01;2.67;;;1.30;;
58972;SDS011;44750;52.040;7.472;2022-12-07T05:35:01;1.33;;;1.20;;
58972;SDS011;44750;52.040;7.472;2022-12-07T05:40:01;2.60;;;1.67;;
58972;SDS011;44750;52.040;7.472;2022-12-07T05:45:02;1.23;;;0.90;;
58972;SDS011;44750;52.040;7.472;2022-12-07T05:50:03;0.65;;;0.65;;
58972;SDS011;44750;52.040;7.472;2022-12-07T05:55:05;1.15;;;0.85;;
58972;SDS011;44750;52.040;7.472;2022-12-07T06:00:06;3.70;;;1.30;;
58972;SDS011;44750;52.040;7.472;2022-12-07T06:05:07;0.60;;;0.60;;
58972;SDS011;44750;52.040;7.472;2022-12-07T06:10:07;6.00;;;1.35;;
58972;SDS011;44750;52.040;7.472;2022-12-07T06:15:08;2.85;;;1.08;;
58972;SDS011;44750;52.040;7.472;2022-12-07T06:20:09;1.20;;;1.10;;
58972;SDS011;44750;52.040;7.472;2022-12-07T06:25:09;1.13;;;1.00;;
58972;SDS011;44750;52.040;7.472;2022-12-07T06:30:09;3.10;;;1.63;;
58972;SDS011;44750;52.040;7.472;2022-12-07T06:35:10;1.65;;;0.85;;
58972;SDS011;44750;52.040;7.472;2022-12-07T06:40:10;1.63;;;1.17;;
58972;SDS011;44750;52.040;7.472;2022-12-07T06:45:10;2.20;;;1.70;;
58972;SDS011;44750;52.040;7.472;2022-12-07T06:50:10;1.25;;;1.13;;
58972;SDS011;44750;52.040;7.472;2022-12-07T06:55:11;0.70;;;0.70;;
58972;SDS011;44750;52.040;7.472;2022-12-07T07:00:12;5.47;;;1.38;;
58972;SDS011;44750;52.040;7.472;2022-12-07T07:05:13;34.58;;;2.75;;
58972;SDS011;44750;52.040;7.472;2022-12-07T07:10:13;1.33;;;0.97;;
58972;SDS011;44750;52.040;7.472;2022-12-07T07:15:13;3.53;;;1.00;;
58972;SDS011;44750;52.040;7.472;2022-12-07T07:20:14;2.15;;;1.00;;
58972;SDS011;44750;52.040;7.472;2022-12-07T07:25:14;1.57;;;0.97;;
58972;SDS011;44750;52.040;7.472;2022-12-07T07:30:15;1.25;;;1.15;;
58972;SDS011;44750;52.040;7.472;2022-12-07T07:35:15;1.73;;;1.10;;
58972;SDS011;44750;52.040;7.472;2022-12-07T07:40:15;1.00;;;0.88;;
58972;SDS011;44750;52.040;7.472;2022-12-07T07:45:16;1.55;;;1.05;;
58972;SDS011;44750;52.040;7.472;2022-12-07T07:50:17;2.05;;;1.35;;
58972;SDS011;44750;52.040;7.472;2022-12-07T07:55:18;1.10;;;0.82;;
58972;SDS011;44750;52.040;7.472;2022-12-07T08:00:23;2.63;;;1.23;;
58972;SDS011;44750;52.040;7.472;2022-12-07T08:05:24;1.67;;;1.13;;
58972;SDS011;44750;52.040;7.472;2022-12-07T08:10:24;1.38;;;0.90;;
58972;SDS011;44750;52.040;7.472;2022-12-07T08:15:26;2.75;;;1.00;;
58972;SDS011;44750;52.040;7.472;2022-12-07T08:20:29;1.02;;;0.85;;
58972;SDS011;44750;52.040;7.472;2022-12-07T08:25:31;1.23;;;1.05;;
58972;SDS011;44750;52.040;7.472;2022-12-07T08:30:32;1.63;;;1.27;;
58972;SDS011;44750;52.040;7.472;2022-12-07T08:35:33;3.63;;;1.05;;
58972;SDS011;44750;52.040;7.472;2022-12-07T08:40:33;1.75;;;0.93;;
58972;SDS011;44750;52.040;7.472;2022-12-07T08:45:34;0.77;;;0.75;;
58972;SDS011;44750;52.040;7.472;2022-12-07T08:50:34;0.60;;;0.60;;
58972;SDS011;44750;52.040;7.472;2022-12-07T08:55:37;1.48;;;0.95;;
58972;SDS011;44750;52.040;7.472;2022-12-07T09:00:37;1.55;;;0.95;;
58972;SDS011;44750;52.040;7.472;2022-12-07T09:05:38;1.10;;;0.93;;
58972;SDS011;44750;52.040;7.472;2022-12-07T09:10:38;3.60;;;1.00;;
58972;SDS011;44750;52.040;7.472;2022-12-07T09:15:38;0.82;;;0.60;;
58972;SDS011;44750;52.040;7.472;2022-12-07T09:20:40;1.00;;;0.90;;
58972;SDS011;44750;52.040;7.472;2022-12-07T09:25:47;1.33;;;1.10;;
58972;SDS011;44750;52.040;7.472;2022-12-07T09:30:48;1.13;;;0.95;;
58972;SDS011;44750;52.040;7.472;2022-12-07T09:35:49;0.57;;;0.57;;
58972;SDS011;44750;52.040;7.472;2022-12-07T09:40:54;1.42;;;1.02;;
58972;SDS011;44750;52.040;7.472;2022-12-07T09:45:57;1.20;;;1.10;;
58972;SDS011;44750;52.040;7.472;2022-12-07T09:50:58;1.75;;;0.77;;
58972;SDS011;44750;52.040;7.472;2022-12-07T09:56:00;3.05;;;1.10;;
58972;SDS011;44750;52.040;7.472;2022-12-07T10:01:08;1.63;;;1.05;;
58972;SDS011;44750;52.040;7.472;2022-12-07T10:06:21;1.13;;;1.02;;
58972;SDS011;44750;52.040;7.472;2022-12-07T10:11:21;0.98;;;0.93;;
58972;SDS011;44750;52.040;7.472;2022-12-07T10:21:26;0.50;;;0.50;;
58972;SDS011;44750;52.040;7.472;2022-12-07T10:26:31;1.52;;;0.70;;
58972;SDS011;44750;52.040;7.472;2022-12-07T10:31:33;1.45;;;1.05;;
58972;SDS011;44750;52.040;7.472;2022-12-07T10:36:38;0.82;;;0.82;;
58972;SDS011;44750;52.040;7.472;2022-12-07T10:41:52;0.63;;;0.60;;
58972;SDS011;44750;52.040;7.472;2022-12-07T11:18:30;0.50;;;0.50;;
58972;SDS011;44750;52.040;7.472;2022-12-07T11:23:44;1.88;;;1.23;;
58972;SDS011;44750;52.040;7.472;2022-12-07T11:29:06;1.38;;;1.02;;
58972;SDS011;44750;52.040;7.472;2022-12-07T11:34:30;0.40;;;0.40;;
58972;SDS011;44750;52.040;7.472;2022-12-07T11:39:43;1.48;;;0.80;;
58972;SDS011;44750;52.040;7.472;2022-12-07T11:55:48;13.32;;;0.95;;
58972;SDS011;44750;52.040;7.472;2022-12-07T12:01:26;2.80;;;1.50;;
58972;SDS011;44750;52.040;7.472;2022-12-07T12:06:33;5.22;;;1.52;;
58972;SDS011;44750;52.040;7.472;2022-12-07T12:22:15;0.60;;;0.60;;
58972;SDS011;44750;52.040;7.472;2022-12-07T12:27:29;2.55;;;0.90;;
58972;SDS011;44750;52.040;7.472;2022-12-07T12:32:44;0.68;;;0.60;;
58972;SDS011;44750;52.040;7.472;2022-12-07T12:37:45;0.70;;;0.70;;
58972;SDS011;44750;52.040;7.472;2022-12-07T12:42:52;0.70;;;0.70;;
58972;SDS011;44750;52.040;7.472;2022-12-07T12:53:36;1.05;;;0.80;;
58972;SDS011;44750;52.040;7.472;2022-12-07T12:58:37;1.63;;;1.13;;
58972;SDS011;44750;52.040;7.472;2022-12-07T13:03:39;8.57;;;0.93;;
58972;SDS011;44750;52.040;7.472;2022-12-07T13:08:53;1.75;;;1.00;;
58972;SDS011;44750;52.040;7.472;2022-12-07T13:24:42;0.60;;;0.60;;
58972;SDS011;44750;52.040;7.472;2022-12-07T13:29:43;1.10;;;0.90;;
58972;SDS011;44750;52.040;7.472;2022-12-07T13:34:43;2.73;;;1.57;;
58972;SDS011;44750;52.040;7.472;2022-12-07T13:39:45;0.82;;;0.82;;
58972;SDS011;44750;52.040;7.472;2022-12-07T13:44:54;0.93;;;0.82;;
58972;SDS011;44750;52.040;7.472;2022-12-07T13:49:55;12.25;;;1.50;;
58972;SDS011;44750;52.040;7.472;2022-12-07T14:00:06;1.42;;;0.80;;
58972;SDS011;44750;52.040;7.472;2022-12-07T14:05:24;2.25;;;1.25;;
58972;SDS011;44750;52.040;7.472;2022-12-07T14:10:32;3.40;;;1.10;;
58972;SDS011;44750;52.040;7.472;2022-12-07T14:15:35;2.03;;;1.45;;
58972;SDS011;44750;52.040;7.472;2022-12-07T14:20:39;0.85;;;0.70;;
58972;SDS011;44750;52.040;7.472;2022-12-07T14:25:47;2.85;;;0.82;;
58972;SDS011;44750;52.040;7.472;2022-12-07T14:30:50;1.23;;;0.80;;
58972;SDS011;44750;52.040;7.472;2022-12-07T14:35:51;1.60;;;0.95;;
58972;SDS011;44750;52.040;7.472;2022-12-07T14:40:52;0.80;;;0.50;;
58972;SDS011;44750;52.040;7.472;2022-12-07T14:45:53;5.45;;;0.85;;
58972;SDS011;44750;52.040;7.472;2022-12-07T14:50:53;1.27;;;0.85;;
58972;SDS011;44750;52.040;7.472;2022-12-07T14:55:54;0.70;;;0.60;;
58972;SDS011;44750;52.040;7.472;2022-12-07T15:00:54;0.63;;;0.63;;
58972;SDS011;44750;52.040;7.472;2022-12-07T15:05:54;1.20;;;1.05;;
58972;SDS011;44750;52.040;7.472;2022-12-07T15:10:55;0.75;;;0.73;;
58972;SDS011;44750;52.040;7.472;2022-12-07T15:15:55;1.73;;;1.38;;
58972;SDS011;44750;52.040;7.472;2022-12-07T15:20:55;3.47;;;1.05;;
58972;SDS011;44750;52.040;7.472;2022-12-07T15:25:55;1.17;;;1.05;;
58972;SDS011;44750;52.040;7.472;2022-12-07T15:30:59;1.60;;;1.10;;
58972;SDS011;44750;52.040;7.472;2022-12-07T15:35:59;1.30;;;1.05;;
58972;SDS011;44750;52.040;7.472;2022-12-07T15:40:59;1.67;;;1.10;;
58972;SDS011;44750;52.040;7.472;2022-12-07T15:45:59;0.65;;;0.63;;
58972;SDS011;44750;52.040;7.472;2022-12-07T15:51:06;2.10;;;1.65;;
58972;SDS011;44750;52.040;7.472;2022-12-07T15:56:08;6.90;;;2.08;;
58972;SDS011;44750;52.040;7.472;2022-12-07T16:01:11;5.10;;;2.17;;
58972;SDS011;44750;52.040;7.472;2022-12-07T16:06:15;2.30;;;1.48;;
58972;SDS011;44750;52.040;7.472;2022-12-07T16:11:16;3.17;;;1.85;;
58972;SDS011;44750;52.040;7.472;2022-12-07T16:16:17;3.10;;;1.70;;
58972;SDS011;44750;52.040;7.472;2022-12-07T16:21:19;1.67;;;1.25;;
58972;SDS011;44750;52.040;7.472;2022-12-07T16:26:20;8.95;;;2.33;;
58972;SDS011;44750;52.040;7.472;2022-12-07T16:31:22;2.75;;;1.63;;
58972;SDS011;44750;52.040;7.472;2022-12-07T16:36:24;8.27;;;3.10;;
58972;SDS011;44750;52.040;7.472;2022-12-07T16:41:24;1.45;;;1.27;;
58972;SDS011;44750;52.040;7.472;2022-12-07T16:46:25;3.88;;;2.75;;
58972;SDS011;44750;52.040;7.472;2022-12-07T16:51:25;1.40;;;1.15;;
58972;SDS011;44750;52.040;7.472;2022-12-07T16:56:25;1.75;;;1.35;;
58972;SDS011;44750;52.040;7.472;2022-12-07T17:01:25;2.05;;;1.50;;
58972;SDS011;44750;52.040;7.472;2022-12-07T17:06:26;4.03;;;2.05;;
58972;SDS011;44750;52.040;7.472;2022-12-07T17:11:29;4.95;;;2.70;;
58972;SDS011;44750;52.040;7.472;2022-12-07T17:16:30;3.40;;;1.83;;
58972;SDS011;44750;52.040;7.472;2022-12-07T17:21:30;2.03;;;1.70;;
58972;SDS011;44750;52.040;7.472;2022-12-07T17:26:31;3.00;;;1.73;;
58972;SDS011;44750;52.040;7.472;2022-12-07T17:31:33;2.40;;;1.67;;
58972;SDS011;44750;52.040;7.472;2022-12-07T17:36:36;7.47;;;2.67;;
58972;SDS011;44750;52.040;7.472;2022-12-07T17:41:39;1.53;;;1.43;;
58972;SDS011;44750;52.040;7.472;2022-12-07T17:46:39;3.90;;;1.90;;
58972;SDS011;44750;52.040;7.472;2022-12-07T17:51:40;3.08;;;1.55;;
58972;SDS011;44750;52.040;7.472;2022-12-07T17:56:40;2.63;;;1.60;;
58972;SDS011;44750;52.040;7.472;2022-12-07T18:01:41;4.15;;;1.80;;
58972;SDS011;44750;52.040;7.472;2022-12-07T18:06:42;2.28;;;1.63;;
58972;SDS011;44750;52.040;7.472;2022-12-07T18:11:43;4.63;;;2.35;;
58972;SDS011;44750;52.040;7.472;2022-12-07T18:16:44;0.82;;;0.80;;
58972;SDS011;44750;52.040;7.472;2022-12-07T18:21:44;2.37;;;1.83;;
58972;SDS011;44750;52.040;7.472;2022-12-07T18:26:45;1.60;;;1.17;;
58972;SDS011;44750;52.040;7.472;2022-12-07T18:31:45;3.00;;;1.88;;
58972;SDS011;44750;52.040;7.472;2022-12-07T18:36:47;1.80;;;1.17;;
58972;SDS011;44750;52.040;7.472;2022-12-07T18:41:48;1.55;;;1.13;;
58972;SDS011;44750;52.040;7.472;2022-12-07T18:46:48;15.02;;;1.75;;
58972;SDS011;44750;52.040;7.472;2022-12-07T18:51:48;1.75;;;1.08;;
58972;SDS011;44750;52.040;7.472;2022-12-07T18:56:49;4.80;;;2.30;;
58972;SDS011;44750;52.040;7.472;2022-12-07T19:01:50;0.93;;;0.90;;
58972;SDS011;44750;52.040;7.472;2022-12-07T19:06:52;1.30;;;0.93;;
58972;SDS011;44750;52.040;7.472;2022-12-07T19:11:52;7.65;;;2.00;;
58972;SDS011;44750;52.040;7.472;2022-12-07T19:16:54;2.55;;;2.20;;
58972;SDS011;44750;52.040;7.472;2022-12-07T19:21:56;2.60;;;1.52;;
58972;SDS011;44750;52.040;7.472;2022-12-07T19:26:56;1.17;;;1.02;;
58972;SDS011;44750;52.040;7.472;2022-12-07T19:31:57;4.25;;;2.03;;
58972;SDS011;44750;52.040;7.472;2022-12-07T19:36:58;3.65;;;1.38;;
58972;SDS011;44750;52.040;7.472;2022-12-07T19:41:59;11.52;;;2.40;;
58972;SDS011;44750;52.040;7.472;2022-12-07T19:47:00;3.42;;;2.38;;
58972;SDS011;44750;52.040;7.472;2022-12-07T19:52:04;2.00;;;1.77;;
58972;SDS011;44750;52.040;7.472;2022-12-07T19:57:06;1.95;;;1.70;;
58972;SDS011;44750;52.040;7.472;2022-12-07T20:02:09;1.85;;;1.33;;
58972;SDS011;44750;52.040;7.472;2022-12-07T20:07:11;4.03;;;2.03;;
58972;SDS011;44750;52.040;7.472;2022-12-07T20:12:11;1.75;;;1.23;;
58972;SDS011;44750;52.040;7.472;2022-12-07T20:17:11;1.52;;;1.42;;
58972;SDS011;44750;52.040;7.472;2022-12-07T20:22:11;1.65;;;1.45;;
58972;SDS011;44750;52.040;7.472;2022-12-07T20:27:12;2.17;;;1.73;;
58972;SDS011;44750;52.040;7.472;2022-12-07T20:32:12;2.15;;;1.70;;
58972;SDS011;44750;52.040;7.472;2022-12-07T20:37:12;2.30;;;1.90;;
58972;SDS011;44750;52.040;7.472;2022-12-07T20:42:12;2.78;;;2.03;;
58972;SDS011;44750;52.040;7.472;2022-12-07T20:47:12;1.67;;;1.50;;
58972;SDS011;44750;52.040;7.472;2022-12-07T20:52:13;1.47;;;1.37;;
58972;SDS011;44750;52.040;7.472;2022-12-07T20:57:13;3.45;;;2.13;;
58972;SDS011;44750;52.040;7.472;2022-12-07T21:02:13;2.72;;;1.90;;
58972;SDS011;44750;52.040;7.472;2022-12-07T21:07:13;4.32;;;2.15;;
58972;SDS011;44750;52.040;7.472;2022-12-07T21:12:13;1.55;;;1.45;;
58972;SDS011;44750;52.040;7.472;2022-12-07T21:17:14;4.05;;;2.08;;
58972;SDS011;44750;52.040;7.472;2022-12-07T21:22:14;4.65;;;3.28;;
58972;SDS011;44750;52.040;7.472;2022-12-07T21:27:14;3.10;;;2.05;;
58972;SDS011;44750;52.040;7.472;2022-12-07T21:32:14;2.28;;;2.08;;
58972;SDS011;44750;52.040;7.472;2022-12-07T21:37:14;4.53;;;2.80;;
58972;SDS011;44750;52.040;7.472;2022-12-07T21:42:15;3.38;;;2.15;;
58972;SDS011;44750;52.040;7.472;2022-12-07T21:47:15;5.50;;;2.65;;
58972;SDS011;44750;52.040;7.472;2022-12-07T21:52:15;11.25;;;2.60;;
58972;SDS011;44750;52.040;7.472;2022-12-07T21:57:15;1.45;;;1.35;;
58972;SDS011;44750;52.040;7.472;2022-12-07T22:02:15;20.45;;;2.97;;
58972;SDS011;44750;52.040;7.472;2022-12-07T22:07:16;3.33;;;2.03;;
58972;SDS011;44750;52.040;7.472;2022-12-07T22:12:16;2.08;;;1.90;;
58972;SDS011;44750;52.040;7.472;2022-12-07T22:17:16;3.75;;;2.35;;
58972;SDS011;44750;52.040;7.472;2022-12-07T22:22:16;1.98;;;1.80;;
58972;SDS011;44750;52.040;7.472;2022-12-07T22:27:17;2.22;;;2.05;;
58972;SDS011;44750;52.040;7.472;2022-12-07T22:32:17;5.47;;;3.88;;
58972;SDS011;44750;52.040;7.472;2022-12-07T22:37:17;7.43;;;5.47;;
58972;SDS011;44750;52.040;7.472;2022-12-07T22:42:18;6.50;;;4.23;;
58972;SDS011;44750;52.040;7.472;2022-12-07T22:47:19;6.25;;;4.43;;
58972;SDS011;44750;52.040;7.472;2022-12-07T22:52:19;10.90;;;6.72;;
58972;SDS011;44750;52.040;7.472;2022-12-07T22:57:19;3.10;;;2.50;;
58972;SDS011;44750;52.040;7.472;2022-12-07T23:02:20;3.40;;;2.33;;
58972;SDS011;44750;52.040;7.472;2022-12-07T23:07:20;5.70;;;2.58;;
58972;SDS011;44750;52.040;7.472;2022-12-07T23:12:20;3.15;;;2.53;;
58972;SDS011;44750;52.040;7.472;2022-12-07T23:17:20;6.15;;;2.20;;
58972;SDS011;44750;52.040;7.472;2022-12-07T23:22:21;5.43;;;3.07;;
58972;SDS011;44750;52.040;7.472;2022-12-07T23:27:21;3.65;;;3.05;;
58972;SDS011;44750;52.040;7.472;2022-12-07T23:32:23;3.58;;;3.08;;
58972;SDS011;44750;52.040;7.472;2022-12-07T23:37:23;10.77;;;3.22;;
58972;SDS011;44750;52.040;7.472;2022-12-07T23:42:24;6.15;;;3.47;;
58972;SDS011;44750;52.040;7.472;2022-12-07T23:47:24;5.28;;;3.67;;
58972;SDS011;44750;52.040;7.472;2022-12-07T23:52:24;3.50;;;3.20;;
58972;SDS011;44750;52.040;7.472;2022-12-07T23:57:24;4.95;;;3.90;;
